Lake Park, Iowa
Current Conditions -  °F | °C
As of 5:55 AM on Thursday 27 Nov 2014 (Local Time) from KOTG Reporting Station
Clear Clear  
Wind Chill: -24°   Ceiling: Unl
Heat Index: -9°   Visibility: 10mi
Dew Point: -13°   Wind: 7mph
Humidity: 84%   Direction: 340°NNW
Pressure: 30.46"   Gusts: NA
Location:  43.46°N, 95.32°W
Report Text: KOTG 271155Z AUTO 34006KT 10SM CLR M23/M25 A3046 RMK AO1 11170 21230 52003
Loading
Personal Weather Stations






























Interactive Weather Map New forecast layout! Learn more

10-Day Weather Forecast

Advertisements
Track Severe Weather on mobile